Time;durP1;ratioP1;P1;durP2;ratioP2;P2;SDS_P1;SDS_P2;PMS_P1;PMS_P2;Temp;Humidity;BMP_temperature;BMP_pressure;BME280_temperature;BME280_humidity;BME280_pressure;Samples;Min_cycle;Max_cycle;Signal;HPM_P1;HPM_P2
2023/06/19 00:00:27;;;;;;;2.50;1.17;;;;;;;-142.75;100.00;75409.06;5027157;28;20167;-62
2023/06/19 00:02:52;;;;;;;2.17;1.00;;;;;;;-142.75;100.00;75413.00;5026993;28;20021;-63
2023/06/19 00:05:18;;;;;;;2.30;0.95;;;;;;;-142.75;100.00;75407.09;5027335;28;20126;-62
2023/06/19 00:07:43;;;;;;;2.67;1.30;;;;;;;-142.75;100.00;75420.88;5027564;28;20033;-63
2023/06/19 00:10:08;;;;;;;3.58;1.13;;;;;;;-142.75;100.00;75432.69;5026458;28;20049;-63
2023/06/19 00:12:34;;;;;;;2.35;1.13;;;;;;;-142.75;100.00;75428.75;5026189;28;20025;-62
2023/06/19 00:14:59;;;;;;;1.98;0.82;;;;;;;-142.75;100.00;75428.75;5027129;28;20014;-63
2023/06/19 00:17:26;;;;;;;1.63;0.80;;;;;;;-142.75;100.00;75446.44;5027095;28;20132;-62
2023/06/19 00:19:52;;;;;;;2.53;1.08;;;;;;;-142.75;100.00;75434.66;5026825;28;20091;-62
2023/06/19 00:22:18;;;;;;;1.67;0.90;;;;;;;-142.75;100.00;75450.38;5026156;28;20025;-62
2023/06/19 00:24:43;;;;;;;4.05;1.13;;;;;;;-142.75;100.00;75472.03;5026745;28;20415;-63
2023/06/19 00:27:08;;;;;;;1.63;0.70;;;;;;;-142.75;100.00;75474.00;5027022;28;20026;-62
2023/06/19 00:29:34;;;;;;;2.75;1.00;;;;;;;-142.75;100.00;75472.03;5026709;28;20446;-62
2023/06/19 00:31:59;;;;;;;2.65;1.20;;;;;;;-142.75;100.00;75477.94;5026654;28;20128;-62
2023/06/19 00:34:25;;;;;;;2.30;1.05;;;;;;;-142.75;100.00;75489.75;5026551;28;20068;-62
2023/06/19 00:36:57;;;;;;;5.07;0.85;;;;;;;-142.75;100.00;75475.97;5026857;28;20033;-62
2023/06/19 00:39:23;;;;;;;2.15;1.10;;;;;;;-142.75;100.00;75487.78;5027074;28;20487;-62
2023/06/19 00:41:51;;;;;;;4.53;1.45;;;;;;;-142.75;100.00;75499.59;5026247;28;20025;-62
2023/06/19 00:44:17;;;;;;;4.55;1.55;;;;;;;-142.75;100.00;75521.22;5026225;28;20025;-61
2023/06/19 00:46:42;;;;;;;5.45;1.67;;;;;;;-142.75;100.00;75521.22;5026560;28;20055;-62
2023/06/19 00:49:08;;;;;;;3.45;1.70;;;;;;;-142.75;100.00;75517.28;5026239;28;20025;-62
2023/06/19 00:51:34;;;;;;;3.10;1.75;;;;;;;-142.75;100.00;75525.16;5026307;28;20022;-62
2023/06/19 00:53:59;;;;;;;3.33;1.75;;;;;;;-142.75;100.00;75525.16;5026206;28;20025;-62
2023/06/19 00:56:25;;;;;;;3.97;2.13;;;;;;;-142.75;100.00;75538.94;5025871;28;20059;-62
2023/06/19 00:58:53;;;;;;;3.13;2.00;;;;;;;-142.75;100.00;75546.81;5026289;28;20025;-62
2023/06/19 01:01:20;;;;;;;3.58;2.05;;;;;;;-142.75;100.00;75536.97;5026233;28;20045;-61
2023/06/19 01:03:46;;;;;;;5.45;2.83;;;;;;;-142.75;100.00;75542.88;5025907;28;20025;-62
2023/06/19 01:06:21;;;;;;;5.07;3.70;;;;;;;-142.75;100.00;75546.81;5026501;28;20083;-62
2023/06/19 01:09:00;;;;;;;5.85;3.38;;;;;;;-142.75;100.00;75544.84;5026457;28;20064;-61
2023/06/19 01:11:31;;;;;;;4.65;2.65;;;;;;;-142.75;100.00;75550.75;5025730;28;20441;-63
2023/06/19 01:14:08;;;;;;;5.85;2.88;;;;;;;-142.75;100.00;75554.69;5025826;28;20028;-61
2023/06/19 01:16:34;;;;;;;4.85;2.85;;;;;;;-142.75;100.00;75527.13;5026046;28;20029;-62
2023/06/19 01:18:59;;;;;;;4.85;2.80;;;;;;;-142.75;100.00;75519.25;5025724;28;20497;-62
2023/06/19 01:21:25;;;;;;;10.82;3.10;;;;;;;-142.75;100.00;75535.00;5025119;28;20025;-63
2023/06/19 01:23:50;;;;;;;5.97;3.65;;;;;;;-142.75;100.00;75527.13;5025553;28;20057;-62
2023/06/19 01:26:17;;;;;;;5.97;3.70;;;;;;;-142.75;100.00;75517.28;5025822;28;20052;-62
2023/06/19 01:28:44;;;;;;;6.50;4.13;;;;;;;-142.75;100.00;75509.44;5025592;28;20036;-63
2023/06/19 01:31:14;;;;;;;6.35;3.20;;;;;;;-142.75;100.00;75515.31;5025838;28;20032;-62
2023/06/19 01:33:42;;;;;;;10.93;4.53;;;;;;;-142.75;100.00;75513.38;5025617;28;20025;-62
2023/06/19 01:36:08;;;;;;;6.47;4.15;;;;;;;-142.75;100.00;75517.28;5025927;28;20525;-63
2023/06/19 01:38:35;;;;;;;6.32;3.47;;;;;;;-142.75;100.00;75511.41;5026007;28;20127;-62
2023/06/19 01:41:02;;;;;;;5.80;4.05;;;;;;;-142.75;100.00;75507.47;5025493;28;20104;-62
2023/06/19 01:43:30;;;;;;;4.80;3.42;;;;;;;-142.75;100.00;75507.47;5025201;28;20069;-62
2023/06/19 01:45:55;;;;;;;5.20;3.60;;;;;;;-142.75;100.00;75513.38;5025456;28;20446;-62
2023/06/19 01:48:21;;;;;;;8.90;4.05;;;;;;;-142.75;100.00;75487.78;5025327;28;20026;-62
2023/06/19 01:50:47;;;;;;;6.70;4.30;;;;;;;-142.75;100.00;75491.72;5025153;28;20038;-63
2023/06/19 01:53:13;;;;;;;6.57;3.33;;;;;;;-142.75;100.00;75499.59;5025082;28;20079;-63
2023/06/19 01:55:39;;;;;;;6.60;3.95;;;;;;;-142.75;100.00;75495.66;5025580;28;20021;-62
2023/06/19 01:58:04;;;;;;;8.60;3.97;;;;;;;-142.75;100.00;75507.47;5025482;28;20057;-62
2023/06/19 02:00:30;;;;;;;5.70;3.92;;;;;;;-142.75;100.00;75501.56;5024903;28;20028;-62
2023/06/19 02:02:55;;;;;;;6.40;3.85;;;;;;;-142.75;100.00;75495.66;5025035;28;20596;-63
2023/06/19 02:05:21;;;;;;;6.07;4.03;;;;;;;-142.75;100.00;75491.72;5025234;28;20025;-62
2023/06/19 02:07:46;;;;;;;5.93;3.38;;;;;;;-142.75;100.00;75495.66;5025341;28;20033;-62
2023/06/19 02:10:12;;;;;;;5.65;3.45;;;;;;;-142.75;100.00;75487.78;5025596;28;20063;-62
2023/06/19 02:12:37;;;;;;;6.68;4.03;;;;;;;-142.75;100.00;75487.78;5024935;28;20083;-62
2023/06/19 02:15:02;;;;;;;6.63;4.20;;;;;;;-142.75;100.00;75477.94;5025184;28;20309;-62
2023/06/19 02:17:28;;;;;;;8.02;4.53;;;;;;;-142.75;100.00;75485.81;5024734;28;20060;-62
2023/06/19 02:19:53;;;;;;;8.90;5.20;;;;;;;-142.75;100.00;75481.88;5024784;28;20040;-63
2023/06/19 02:22:18;;;;;;;10.50;5.55;;;;;;;-142.75;100.00;75487.78;5024779;28;20105;-62
2023/06/19 02:24:44;;;;;;;10.98;6.30;;;;;;;-142.75;100.00;75485.81;5024831;28;20030;-61
2023/06/19 02:27:10;;;;;;;12.10;6.75;;;;;;;-142.75;100.00;75475.97;5025356;28;20506;-63
2023/06/19 02:29:35;;;;;;;14.02;7.70;;;;;;;-142.75;100.00;75477.94;5024929;28;20406;-62
2023/06/19 02:32:01;;;;;;;14.65;8.68;;;;;;;-142.75;100.00;75475.97;5024826;28;20029;-63
2023/06/19 02:34:26;;;;;;;15.75;8.40;;;;;;;-142.75;100.00;75483.84;5026405;28;20025;-63
2023/06/19 02:36:52;;;;;;;19.42;9.80;;;;;;;-142.75;100.00;75487.78;5029273;28;20395;-62
2023/06/19 02:39:18;;;;;;;16.33;9.43;;;;;;;-142.75;100.00;75483.84;5029298;28;20029;-63
2023/06/19 02:41:45;;;;;;;17.90;10.27;;;;;;;-142.75;100.00;75475.97;5029001;28;20021;-63
2023/06/19 02:44:11;;;;;;;16.15;10.05;;;;;;;-142.75;100.00;75479.91;5028952;28;20399;-64
2023/06/19 02:46:37;;;;;;;18.85;10.20;;;;;;;-142.75;100.00;75479.91;5028845;28;20083;-64
2023/06/19 02:49:02;;;;;;;20.08;10.60;;;;;;;-142.75;100.00;75487.78;5028585;28;20077;-64
2023/06/19 02:51:27;;;;;;;15.75;10.30;;;;;;;-142.75;100.00;75475.97;5028365;28;20459;-63
2023/06/19 02:53:53;;;;;;;14.63;9.02;;;;;;;-142.75;100.00;75475.97;5028462;28;20044;-63
2023/06/19 02:56:18;;;;;;;17.20;10.68;;;;;;;-142.75;100.00;75477.94;5028506;28;20025;-63
2023/06/19 02:58:43;;;;;;;16.58;9.88;;;;;;;-142.75;100.00;75485.81;5028653;28;20498;-64
2023/06/19 03:01:09;;;;;;;14.70;9.40;;;;;;;-142.75;100.00;75489.75;5028412;28;20103;-62
2023/06/19 03:03:37;;;;;;;15.77;8.60;;;;;;;-142.75;100.00;75491.72;5028055;28;20568;-63
2023/06/19 03:06:07;;;;;;;16.77;9.10;;;;;;;-142.75;100.00;75493.69;5028739;28;20037;-63
2023/06/19 03:08:36;;;;;;;13.10;8.13;;;;;;;-142.75;100.00;75495.66;5028807;28;20682;-63
2023/06/19 03:11:05;;;;;;;14.43;8.77;;;;;;;-142.75;100.00;75509.44;5028297;28;20025;-63
2023/06/19 03:13:50;;;;;;;15.68;8.13;;;;;;;-142.75;100.00;75499.59;5028053;28;20034;-63
2023/06/19 03:16:16;;;;;;;16.80;8.48;;;;;;;-142.75;100.00;75499.59;5029000;28;20132;-62
2023/06/19 03:18:42;;;;;;;11.90;7.43;;;;;;;-142.75;100.00;75501.56;5028546;28;20854;-64
2023/06/19 03:21:07;;;;;;;12.57;6.72;;;;;;;-142.75;100.00;75499.59;5028074;28;20033;-63
2023/06/19 03:23:33;;;;;;;11.02;7.10;;;;;;;-142.75;100.00;75509.44;5027912;28;20033;-63
2023/06/19 03:25:58;;;;;;;11.18;7.03;;;;;;;-142.75;100.00;75515.31;5027962;28;20025;-63
2023/06/19 03:28:23;;;;;;;12.02;7.18;;;;;;;-142.75;100.00;75519.25;5027732;28;20025;-63
2023/06/19 03:30:50;;;;;;;10.30;6.80;;;;;;;-142.75;100.00;75529.09;5027814;28;20025;-63
2023/06/19 03:33:15;;;;;;;11.38;6.20;;;;;;;-142.75;100.00;75535.00;5027472;28;20734;-63
2023/06/19 03:35:40;;;;;;;11.85;5.75;;;;;;;-142.75;100.00;75527.13;5028328;28;20083;-63
2023/06/19 03:38:06;;;;;;;10.60;6.55;;;;;;;-142.75;100.00;75535.00;5028097;28;20049;-63
2023/06/19 03:40:31;;;;;;;11.00;6.45;;;;;;;-142.75;100.00;75535.00;5028212;28;20036;-62
2023/06/19 03:42:56;;;;;;;12.18;6.82;;;;;;;-142.75;100.00;75538.94;5027299;28;20021;-62
2023/06/19 03:45:22;;;;;;;10.70;6.18;;;;;;;-142.75;100.00;75552.72;5027138;28;20037;-63
2023/06/19 03:47:47;;;;;;;10.77;6.25;;;;;;;-142.75;100.00;75556.66;5027738;28;20083;-62
2023/06/19 03:50:12;;;;;;;8.65;5.47;;;;;;;-142.75;100.00;75576.34;5028015;28;20035;-63
2023/06/19 03:52:37;;;;;;;10.32;5.45;;;;;;;-142.75;100.00;75578.31;5027206;28;20025;-63
2023/06/19 03:55:04;;;;;;;7.47;4.60;;;;;;;-142.75;100.00;75584.22;5027602;28;20014;-63
2023/06/19 03:57:29;;;;;;;7.53;4.07;;;;;;;-142.75;100.00;75605.84;5027377;28;20099;-62
2023/06/19 03:59:55;;;;;;;8.60;3.63;;;;;;;-142.75;100.00;75613.72;5027295;28;20503;-63
2023/06/19 04:02:21;;;;;;;7.13;3.60;;;;;;;-142.75;100.00;75629.47;5027090;28;20029;-63
2023/06/19 04:04:46;;;;;;;10.77;3.92;;;;;;;-142.75;100.00;75629.47;5027181;28;20029;-63
2023/06/19 04:07:11;;;;;;;7.28;3.30;;;;;;;-142.75;100.00;75635.38;5027661;28;20075;-63
2023/06/19 04:09:37;;;;;;;5.07;3.05;;;;;;;-142.75;100.00;75621.59;5027476;28;20120;-63
2023/06/19 04:12:02;;;;;;;6.03;3.17;;;;;;;-142.75;100.00;75627.50;5026870;28;20049;-63
2023/06/19 04:14:27;;;;;;;6.32;3.60;;;;;;;-142.75;100.00;75615.69;5026946;28;20052;-63
2023/06/19 04:16:53;;;;;;;7.18;3.08;;;;;;;-142.75;100.00;75621.59;5027059;28;20026;-63
2023/06/19 04:19:18;;;;;;;5.78;2.88;;;;;;;-142.75;100.00;75637.34;5026750;28;20219;-63
2023/06/19 04:21:43;;;;;;;6.68;2.60;;;;;;;-142.75;100.00;75641.28;5027246;28;20021;-63
2023/06/19 04:24:09;;;;;;;5.57;3.20;;;;;;;-142.75;100.00;75647.19;5026956;28;20024;-63
2023/06/19 04:26:36;;;;;;;4.88;3.35;;;;;;;-142.75;100.00;75660.97;5027181;28;20033;-63
2023/06/19 04:29:01;;;;;;;10.80;4.97;;;;;;;-142.75;100.00;75664.91;5026528;28;20036;-62
2023/06/19 04:31:28;;;;;;;7.50;4.43;;;;;;;-142.75;100.00;75688.50;5025322;28;20021;-63
2023/06/19 04:33:56;;;;;;;9.13;5.68;;;;;;;-142.75;100.00;75702.28;5026740;28;20079;-63
2023/06/19 04:36:21;;;;;;;10.25;5.43;;;;;;;-142.75;100.00;75710.16;5026824;28;20071;-63
2023/06/19 04:38:47;;;;;;;11.43;5.78;;;;;;;-142.75;100.00;75721.97;5027376;28;20496;-63
2023/06/19 04:41:12;;;;;;;11.90;6.10;;;;;;;-142.75;100.00;75721.97;5026646;28;20029;-63
2023/06/19 04:43:41;;;;;;;10.65;6.57;;;;;;;-142.75;100.00;75716.06;5026123;28;20108;-63
2023/06/19 04:46:06;;;;;;;12.40;6.53;;;;;;;-142.75;100.00;75718.03;5026619;28;20030;-63
2023/06/19 04:48:32;;;;;;;11.27;6.45;;;;;;;-142.75;100.00;75720.00;5026305;28;20506;-63
2023/06/19 04:50:57;;;;;;;10.50;6.57;;;;;;;-142.75;100.00;75747.56;5026524;28;20033;-63
2023/06/19 04:53:22;;;;;;;8.30;6.05;;;;;;;-142.75;100.00;75739.69;5026079;28;20044;-63
2023/06/19 04:55:49;;;;;;;9.10;6.05;;;;;;;-142.75;100.00;75745.59;5026439;28;20022;-63
2023/06/19 04:58:15;;;;;;;10.13;5.85;;;;;;;-142.75;100.00;75741.66;5025566;28;20032;-64
2023/06/19 05:00:40;;;;;;;9.80;6.57;;;;;;;-142.75;100.00;75753.47;5026453;28;20025;-63
2023/06/19 05:03:05;;;;;;;10.45;5.80;;;;;;;-142.75;100.00;75763.28;5026047;28;20032;-62
2023/06/19 05:05:31;;;;;;;12.32;6.20;;;;;;;-142.75;100.00;75755.44;5025972;28;20034;-63
2023/06/19 05:07:56;;;;;;;11.02;6.57;;;;;;;-142.75;100.00;75755.44;5026164;28;20041;-62
2023/06/19 05:10:21;;;;;;;12.63;5.75;;;;;;;-142.75;100.00;75751.50;5026322;28;20059;-63
2023/06/19 05:12:47;;;;;;;8.48;5.45;;;;;;;-142.75;100.00;75759.38;5025579;28;20033;-63
2023/06/19 05:15:12;;;;;;;10.07;5.55;;;;;;;-142.75;100.00;75759.38;5026172;28;20032;-63
2023/06/19 05:17:38;;;;;;;7.95;5.20;;;;;;;-142.75;100.00;75745.59;5024516;28;20045;-63
2023/06/19 05:20:07;;;;;;;8.07;5.65;;;;;;;-142.75;100.00;75747.56;5025813;28;20040;-63
2023/06/19 05:22:33;;;;;;;12.70;6.72;;;;;;;-142.75;100.00;75751.50;5025341;28;20075;-62
2023/06/19 05:24:59;;;;;;;14.00;7.18;;;;;;;-142.75;100.00;75743.63;5025833;28;20100;-63
2023/06/19 05:27:24;;;;;;;8.73;6.30;;;;;;;-142.75;100.00;75751.50;5025601;28;20028;-63
2023/06/19 05:29:49;;;;;;;8.45;6.40;;;;;;;-142.75;100.00;75749.53;5041220;28;20028;-63
2023/06/19 05:32:15;;;;;;;14.57;8.13;;;;;;;-142.75;100.00;75747.56;5025585;28;20060;-63
2023/06/19 05:34:40;;;;;;;16.55;8.00;;;;;;;-142.75;100.00;75761.34;5025842;28;20621;-63
2023/06/19 05:37:05;;;;;;;14.38;8.38;;;;;;;-142.75;100.00;75769.19;5025883;28;20013;-63
2023/06/19 05:39:31;;;;;;;14.90;8.85;;;;;;;-142.75;100.00;75788.88;5026201;28;20025;-64
2023/06/19 05:41:56;;;;;;;14.65;8.32;;;;;;;-142.75;100.00;75775.09;5025305;28;20040;-64
2023/06/19 05:44:21;;;;;;;12.00;8.40;;;;;;;-142.75;100.00;75786.91;5025153;28;20025;-63
2023/06/19 05:46:47;;;;;;;10.98;7.10;;;;;;;-142.75;100.00;75804.63;5025457;28;20026;-63
2023/06/19 05:49:12;;;;;;;11.55;7.60;;;;;;;-142.75;100.00;75806.59;5025291;28;20056;-63
2023/06/19 05:51:37;;;;;;;9.38;6.47;;;;;;;-142.75;100.00;75814.47;5025256;28;20390;-63
2023/06/19 05:54:03;;;;;;;11.00;5.97;;;;;;;-142.75;100.00;75812.50;5025258;28;20010;-63
2023/06/19 05:56:32;;;;;;;11.88;7.22;;;;;;;-142.75;100.00;75814.47;5024772;28;20017;-63
2023/06/19 05:58:58;;;;;;;11.85;7.28;;;;;;;-142.75;100.00;75834.16;5025241;28;20017;-63
2023/06/19 06:01:24;;;;;;;11.55;7.65;;;;;;;-142.75;100.00;75836.13;5025345;28;20171;-63
2023/06/19 06:03:49;;;;;;;10.95;6.47;;;;;;;-142.75;100.00;75828.25;5023668;28;20033;-64
2023/06/19 06:06:14;;;;;;;11.40;7.95;;;;;;;-142.75;100.00;75828.25;5025071;28;20048;-64
2023/06/19 06:08:40;;;;;;;12.13;8.13;;;;;;;-142.75;100.00;75845.97;5024034;28;20017;-63
2023/06/19 06:11:05;;;;;;;11.48;7.85;;;;;;;-142.75;100.00;75844.00;5026700;28;20151;-64
2023/06/19 06:13:31;;;;;;;12.57;7.90;;;;;;;-142.75;100.00;75836.13;5024436;28;20025;-64
2023/06/19 06:15:56;;;;;;;10.73;7.60;;;;;;;-142.75;100.00;75826.28;5024655;28;20574;-63
2023/06/19 06:18:21;;;;;;;11.77;7.50;;;;;;;-142.75;100.00;75857.78;5024726;28;20043;-64
2023/06/19 06:20:47;;;;;;;14.13;7.70;;;;;;;-142.75;100.00;75861.69;5024792;28;20581;-63
2023/06/19 06:23:12;;;;;;;15.98;7.53;;;;;;;-142.75;100.00;75865.63;5024253;28;20041;-63
2023/06/19 06:25:38;;;;;;;12.10;7.68;;;;;;;-142.75;100.00;75881.38;5024364;28;20030;-63
2023/06/19 06:28:03;;;;;;;17.67;7.93;;;;;;;-142.75;100.00;75885.31;5024551;28;20124;-64
2023/06/19 06:30:29;;;;;;;16.73;7.80;;;;;;;-142.75;100.00;75873.50;5024316;28;20045;-63
2023/06/19 06:32:54;;;;;;;12.10;7.03;;;;;;;-142.75;100.00;75873.50;5024186;28;20033;-63
2023/06/19 06:35:19;;;;;;;12.07;7.18;;;;;;;-142.75;100.00;75873.50;5024459;28;20574;-63
2023/06/19 06:37:46;;;;;;;17.15;7.85;;;;;;;-142.75;100.00;75889.25;5025089;28;20044;-66
2023/06/19 06:40:11;;;;;;;12.73;7.97;;;;;;;-142.75;100.00;75885.31;5024357;28;20048;-63
2023/06/19 06:42:37;;;;;;;15.07;9.00;;;;;;;-142.75;100.00;75883.34;5023199;28;20498;-63
2023/06/19 06:45:05;;;;;;;16.25;9.57;;;;;;;-142.75;100.00;75887.28;5023731;28;20034;-63
2023/06/19 06:47:30;;;;;;;19.15;11.10;;;;;;;-142.75;100.00;75883.34;5023035;28;20025;-64
2023/06/19 06:49:56;;;;;;;20.23;12.07;;;;;;;-142.75;100.00;75883.34;5024017;28;20447;-64
2023/06/19 06:52:21;;;;;;;19.77;11.70;;;;;;;-142.75;100.00;75891.22;5023883;28;20087;-64
2023/06/19 06:54:46;;;;;;;21.15;11.60;;;;;;;-142.75;100.00;75889.25;5021497;28;20029;-63
2023/06/19 06:57:12;;;;;;;19.73;12.68;;;;;;;-142.75;100.00;75887.28;5027893;28;20498;-64
2023/06/19 06:59:37;;;;;;;27.23;12.63;;;;;;;-142.75;100.00;75891.22;5023511;28;20036;-63
2023/06/19 07:02:03;;;;;;;22.05;11.18;;;;;;;-142.75;100.00;75893.19;5023862;28;20033;-64
2023/06/19 07:04:28;;;;;;;25.58;13.73;;;;;;;-142.75;100.00;75899.09;5023853;28;20028;-64
2023/06/19 07:06:53;;;;;;;20.75;13.07;;;;;;;-142.75;100.00;75908.94;5024280;28;20021;-64
2023/06/19 07:09:21;;;;;;;23.42;14.07;;;;;;;-142.75;100.00;75914.84;5024593;28;20104;-64
2023/06/19 07:11:46;;;;;;;24.88;14.45;;;;;;;-142.75;100.00;75928.63;5024392;28;20681;-63
2023/06/19 07:14:11;;;;;;;24.77;14.82;;;;;;;-142.75;100.00;75920.75;5024114;28;20045;-64
2023/06/19 07:16:37;;;;;;;19.10;13.25;;;;;;;-142.75;100.00;75914.84;5024113;28;20017;-64
2023/06/19 07:19:02;;;;;;;22.25;12.90;;;;;;;-142.75;100.00;75916.81;5023946;28;20076;-63
2023/06/19 07:21:29;;;;;;;22.52;11.77;;;;;;;-142.75;100.00;75895.16;5024894;28;22247;-65
2023/06/19 07:23:55;;;;;;;21.27;13.55;;;;;;;-142.75;100.00;75891.22;5042366;28;20040;-64
2023/06/19 07:26:20;;;;;;;21.85;13.93;;;;;;;-142.75;100.00;75879.41;5026295;28;20021;-63
2023/06/19 07:28:45;;;;;;;27.25;15.63;;;;;;;-142.75;100.00;75881.38;5041125;28;20128;-64
2023/06/19 07:31:11;;;;;;;23.02;14.23;;;;;;;-142.75;100.00;75875.47;5026476;28;20048;-63
2023/06/19 07:33:36;;;;;;;28.33;15.45;;;;;;;-142.75;100.00;75865.63;5025927;28;20025;-64
2023/06/19 07:36:04;;;;;;;22.90;14.98;;;;;;;-142.75;100.00;75863.66;5026383;28;20022;-62
2023/06/19 07:38:30;;;;;;;23.33;14.48;;;;;;;-142.75;100.00;75859.72;5026531;28;20601;-63
2023/06/19 07:40:55;;;;;;;23.42;13.40;;;;;;;-142.75;100.00;75863.66;5027175;28;20079;-62
2023/06/19 07:43:22;;;;;;;22.65;13.65;;;;;;;-142.75;100.00;75877.44;5026497;28;20033;-62
2023/06/19 07:45:48;;;;;;;24.80;13.63;;;;;;;-142.75;100.00;75901.06;5026779;28;20025;-63
2023/06/19 07:48:13;;;;;;;23.60;13.85;;;;;;;-142.75;100.00;75881.38;5026347;28;20521;-62
2023/06/19 07:50:38;;;;;;;22.63;13.18;;;;;;;-142.75;100.00;75859.72;5026742;28;20029;-65
2023/06/19 07:53:03;;;;;;;23.20;13.32;;;;;;;-142.75;100.00;75865.63;5025914;28;20051;-62
2023/06/19 07:55:29;;;;;;;20.15;12.60;;;;;;;-142.75;100.00;75867.59;5026676;28;20044;-61
2023/06/19 07:57:56;;;;;;;20.02;12.88;;;;;;;-142.75;100.00;75859.72;5026756;28;20037;-63
2023/06/19 08:00:22;;;;;;;28.30;13.73;;;;;;;-142.75;100.00;75845.97;5026762;28;20022;-64
2023/06/19 08:02:47;;;;;;;22.58;12.60;;;;;;;-142.75;100.00;75859.72;5026393;28;20022;-62
2023/06/19 08:05:13;;;;;;;19.83;11.43;;;;;;;-142.75;100.00;75863.66;5025859;28;20611;-62
2023/06/19 08:07:38;;;;;;;24.33;12.15;;;;;;;-142.75;100.00;75857.78;5026110;28;20029;-63
2023/06/19 08:10:04;;;;;;;21.60;13.52;;;;;;;-142.75;100.00;75885.31;5026379;28;20025;-63
2023/06/19 08:12:30;;;;;;;20.08;12.75;;;;;;;-142.75;100.00;75905.00;5025154;28;20051;-62
2023/06/19 08:14:55;;;;;;;21.15;12.10;;;;;;;-142.75;100.00;75895.16;5026524;28;20025;-63
2023/06/19 08:17:21;;;;;;;24.45;13.77;;;;;;;-142.75;100.00;75887.28;5027141;28;20044;-64
2023/06/19 08:19:47;;;;;;;19.48;12.88;;;;;;;-142.75;100.00;75893.19;5026919;28;20041;-64
2023/06/19 08:22:12;;;;;;;23.75;12.07;;;;;;;-142.75;100.00;75897.13;5026927;28;20436;-64
2023/06/19 08:24:39;;;;;;;22.15;12.65;;;;;;;-142.75;100.00;75905.00;5026908;28;20163;-64
2023/06/19 08:27:05;;;;;;;22.60;13.80;;;;;;;-142.75;100.00;75922.72;5026790;28;20029;-60
2023/06/19 08:29:30;;;;;;;22.90;13.60;;;;;;;-142.75;100.00;75924.69;5026960;28;20040;-62
2023/06/19 08:31:55;;;;;;;25.55;14.25;;;;;;;-142.75;100.00;75916.81;5025503;28;20031;-62
2023/06/19 08:34:21;;;;;;;22.05;13.68;;;;;;;-142.75;100.00;75918.78;5026679;28;20206;-61
2023/06/19 08:36:46;;;;;;;26.25;13.30;;;;;;;-142.75;100.00;75916.81;5026379;28;20025;-61
2023/06/19 08:39:12;;;;;;;23.90;14.65;;;;;;;-142.75;100.00;75905.00;5026507;28;20410;-62
2023/06/19 08:41:38;;;;;;;23.73;14.30;;;;;;;-142.75;100.00;75906.97;5026142;28;20025;-60
2023/06/19 08:44:05;;;;;;;21.95;14.02;;;;;;;-142.75;100.00;75918.78;5022420;28;20037;-61
2023/06/19 08:46:30;;;;;;;23.13;14.38;;;;;;;-142.75;100.00;75916.81;5023833;28;20029;-62
2023/06/19 08:48:56;;;;;;;21.33;12.82;;;;;;;-142.75;100.00;75908.94;5024200;28;20025;-62
2023/06/19 08:51:21;;;;;;;22.65;13.63;;;;;;;-142.75;100.00;75903.03;5023868;28;20025;-62
2023/06/19 08:53:54;;;;;;;23.95;14.23;;;;;;;-142.75;100.00;75891.22;5023991;28;20033;-62
2023/06/19 08:56:20;;;;;;;21.52;13.43;;;;;;;-142.75;100.00;75893.19;5024140;28;20032;-62
2023/06/19 08:58:45;;;;;;;22.35;12.98;;;;;;;-142.75;100.00;75879.41;5025149;28;20041;-61
2023/06/19 09:01:11;;;;;;;24.65;12.90;;;;;;;-142.75;100.00;75857.78;5026533;28;20394;-62
2023/06/19 09:03:36;;;;;;;21.08;13.85;;;;;;;-142.75;100.00;75818.41;5025964;28;20029;-62
2023/06/19 09:06:08;;;;;;;24.58;14.48;;;;;;;-142.75;100.00;75810.53;5026065;28;20026;-62
2023/06/19 09:08:34;;;;;;;23.98;15.48;;;;;;;-142.75;100.00;75849.91;5026464;28;20025;-61
2023/06/19 09:11:02;;;;;;;21.98;13.45;;;;;;;-142.75;100.00;75873.50;5027760;28;20688;-62
2023/06/19 09:13:29;;;;;;;23.35;13.95;;;;;;;-142.75;100.00;75885.31;5026930;28;20025;-61
2023/06/19 09:16:12;;;;;;;25.58;16.13;;;;;;;-142.75;100.00;75906.97;5027979;28;20045;-62
2023/06/19 09:18:48;;;;;;;23.50;15.18;;;;;;;-142.75;100.00;75883.34;5027084;28;20734;-62
2023/06/19 09:21:23;;;;;;;27.10;15.35;;;;;;;-142.75;100.00;75889.25;5027508;28;20100;-62
2023/06/19 09:23:51;;;;;;;29.63;16.58;;;;;;;-142.75;100.00;75901.06;5042427;28;20025;-62
2023/06/19 09:26:18;;;;;;;24.80;13.98;;;;;;;-142.75;100.00;75903.03;5027050;28;20026;-62
2023/06/19 09:28:44;;;;;;;20.13;13.88;;;;;;;-142.75;100.00;75881.38;5027100;28;20026;-62
2023/06/19 09:31:10;;;;;;;23.85;14.15;;;;;;;-142.75;100.00;75861.69;5026903;28;20033;-62
2023/06/19 09:33:36;;;;;;;22.73;15.27;;;;;;;-142.75;100.00;75842.03;5026735;28;20104;-61
2023/06/19 09:36:03;;;;;;;29.35;15.68;;;;;;;-142.75;100.00;75810.53;5026793;28;20024;-62
2023/06/19 09:38:30;;;;;;;22.17;14.25;;;;;;;-142.75;100.00;75781.00;5026805;28;20021;-62
2023/06/19 09:40:59;;;;;;;27.67;14.80;;;;;;;-142.75;100.00;75820.38;5027459;28;20022;-62
2023/06/19 09:43:30;;;;;;;23.90;14.52;;;;;;;-142.75;100.00;75828.25;5026124;28;20033;-62
2023/06/19 09:45:57;;;;;;;21.95;13.52;;;;;;;-142.75;100.00;75814.47;5026931;28;20032;-62
2023/06/19 09:48:29;;;;;;;22.75;13.30;;;;;;;-142.75;100.00;75771.16;5026676;28;20112;-62
2023/06/19 09:51:00;;;;;;;21.08;14.13;;;;;;;-142.75;100.00;75763.28;5026787;28;20526;-62
2023/06/19 09:53:26;;;;;;;26.02;13.52;;;;;;;-142.75;100.00;75771.16;5026473;28;20044;-62
2023/06/19 09:55:51;;;;;;;22.48;13.35;;;;;;;-142.75;100.00;75747.56;5026940;28;20026;-62
2023/06/19 09:58:19;;;;;;;17.10;10.18;;;;;;;-142.75;100.00;75704.25;5026831;28;20034;-62
2023/06/19 10:00:46;;;;;;;18.55;11.05;;;;;;;-142.75;100.00;75712.13;5026815;28;20086;-62
2023/06/19 10:03:13;;;;;;;20.52;11.82;;;;;;;-142.75;100.00;75723.94;5026431;28;20025;-61
2023/06/19 10:05:39;;;;;;;17.63;10.95;;;;;;;-142.75;100.00;75686.53;5026493;28;20486;-62
2023/06/19 10:08:05;;;;;;;16.30;11.25;;;;;;;-142.75;100.00;75674.72;5026408;28;20021;-62
2023/06/19 10:10:31;;;;;;;16.83;11.18;;;;;;;-142.75;100.00;75680.63;5026453;28;20490;-62
2023/06/19 10:13:10;;;;;;;15.43;8.68;;;;;;;-142.75;100.00;75653.09;5026127;28;20052;-63
2023/06/19 10:15:41;;;;;;;15.90;10.65;;;;;;;-142.75;100.00;75621.59;5026234;28;20036;-62
2023/06/19 10:18:07;;;;;;;18.65;11.40;;;;;;;-142.75;100.00;75641.28;5026495;28;20032;-62
2023/06/19 10:20:37;;;;;;;14.80;10.43;;;;;;;-142.75;100.00;75653.09;5026290;28;20025;-62
2023/06/19 10:23:08;;;;;;;15.93;9.98;;;;;;;-142.75;100.00;75660.97;5026151;28;20108;-62
2023/06/19 10:25:38;;;;;;;17.08;10.48;;;;;;;-142.75;100.00;75635.38;5026233;28;20394;-63
2023/06/19 10:28:15;;;;;;;16.08;10.02;;;;;;;-142.75;100.00;75621.59;5026340;28;20038;-62
2023/06/19 10:30:41;;;;;;;14.23;9.13;;;;;;;-142.75;100.00;75615.69;5026635;28;20021;-62
2023/06/19 10:33:06;;;;;;;12.85;8.70;;;;;;;-142.75;100.00;75617.66;5026034;28;20690;-62
2023/06/19 10:35:41;;;;;;;14.98;9.60;;;;;;;-142.75;100.00;75605.84;5026108;28;20017;-62
2023/06/19 10:38:10;;;;;;;15.68;9.07;;;;;;;-142.75;100.00;75574.38;5026269;28;20510;-62
2023/06/19 10:40:38;;;;;;;14.55;8.38;;;;;;;-142.75;100.00;75566.50;5024680;28;20207;-63
2023/06/19 10:43:04;;;;;;;13.27;8.43;;;;;;;-142.75;100.00;75558.63;5026511;28;20083;-63
2023/06/19 10:45:29;;;;;;;11.88;7.75;;;;;;;-142.75;100.00;75538.94;5025945;28;20029;-63
2023/06/19 10:47:55;;;;;;;12.68;8.25;;;;;;;-142.75;100.00;75536.97;5026180;28;20548;-63
2023/06/19 10:50:22;;;;;;;12.65;8.48;;;;;;;-142.75;100.00;75546.81;5025827;28;20431;-63
2023/06/19 10:52:48;;;;;;;12.23;8.82;;;;;;;-142.75;100.00;75538.94;5025922;28;20030;-63
2023/06/19 10:55:14;;;;;;;13.75;8.80;;;;;;;-142.75;100.00;75515.31;5027521;28;20634;-63
2023/06/19 10:57:44;;;;;;;14.35;8.15;;;;;;;-142.75;100.00;75479.91;5029939;28;20025;-62